sensor_id;sensor_type;location;lat;lon;timestamp;P1;durP1;ratioP1;P2;durP2;ratioP2
52918;SDS011;38793;52.690;6.812;2023-02-03T00:01:14;12.82;;;3.38;;
52918;SDS011;38793;52.690;6.812;2023-02-03T00:06:06;10.77;;;2.75;;
52918;SDS011;38793;52.690;6.812;2023-02-03T00:08:32;10.68;;;2.78;;
52918;SDS011;38793;52.690;6.812;2023-02-03T00:10:58;11.10;;;2.40;;
52918;SDS011;38793;52.690;6.812;2023-02-03T00:13:23;8.48;;;2.42;;
52918;SDS011;38793;52.690;6.812;2023-02-03T00:15:50;10.80;;;3.33;;
52918;SDS011;38793;52.690;6.812;2023-02-03T00:18:16;8.55;;;1.52;;
52918;SDS011;38793;52.690;6.812;2023-02-03T00:20:42;12.48;;;1.60;;
52918;SDS011;38793;52.690;6.812;2023-02-03T00:23:09;9.57;;;1.73;;
52918;SDS011;38793;52.690;6.812;2023-02-03T00:25:36;16.83;;;2.30;;
52918;SDS011;38793;52.690;6.812;2023-02-03T00:28:02;16.45;;;2.50;;
52918;SDS011;38793;52.690;6.812;2023-02-03T00:30:29;8.98;;;1.00;;
52918;SDS011;38793;52.690;6.812;2023-02-03T00:32:55;7.93;;;1.90;;
52918;SDS011;38793;52.690;6.812;2023-02-03T00:35:21;14.77;;;2.07;;
52918;SDS011;38793;52.690;6.812;2023-02-03T00:37:53;4.82;;;1.45;;
52918;SDS011;38793;52.690;6.812;2023-02-03T00:40:20;7.25;;;0.88;;
52918;SDS011;38793;52.690;6.812;2023-02-03T00:42:47;15.82;;;3.28;;
52918;SDS011;38793;52.690;6.812;2023-02-03T00:45:12;4.47;;;0.70;;
52918;SDS011;38793;52.690;6.812;2023-02-03T00:47:38;7.13;;;1.27;;
52918;SDS011;38793;52.690;6.812;2023-02-03T00:50:04;10.40;;;1.83;;
52918;SDS011;38793;52.690;6.812;2023-02-03T00:52:30;8.57;;;1.67;;
52918;SDS011;38793;52.690;6.812;2023-02-03T00:54:56;11.70;;;2.13;;
52918;SDS011;38793;52.690;6.812;2023-02-03T00:57:22;8.10;;;2.27;;
52918;SDS011;38793;52.690;6.812;2023-02-03T00:59:47;7.35;;;2.20;;
52918;SDS011;38793;52.690;6.812;2023-02-03T01:02:13;10.40;;;2.00;;
52918;SDS011;38793;52.690;6.812;2023-02-03T01:04:40;6.30;;;1.45;;
52918;SDS011;38793;52.690;6.812;2023-02-03T01:07:06;11.60;;;3.30;;
52918;SDS011;38793;52.690;6.812;2023-02-03T01:09:32;10.13;;;2.50;;
52918;SDS011;38793;52.690;6.812;2023-02-03T01:11:59;8.15;;;2.10;;
52918;SDS011;38793;52.690;6.812;2023-02-03T01:14:24;6.95;;;2.03;;
52918;SDS011;38793;52.690;6.812;2023-02-03T01:16:50;13.77;;;2.30;;
52918;SDS011;38793;52.690;6.812;2023-02-03T01:19:15;7.33;;;1.90;;
52918;SDS011;38793;52.690;6.812;2023-02-03T01:21:41;9.30;;;2.63;;
52918;SDS011;38793;52.690;6.812;2023-02-03T01:24:07;11.10;;;1.83;;
52918;SDS011;38793;52.690;6.812;2023-02-03T01:26:33;9.45;;;2.25;;
52918;SDS011;38793;52.690;6.812;2023-02-03T01:28:59;11.90;;;2.13;;
52918;SDS011;38793;52.690;6.812;2023-02-03T01:31:26;10.75;;;2.42;;
52918;SDS011;38793;52.690;6.812;2023-02-03T01:33:54;11.23;;;2.55;;
52918;SDS011;38793;52.690;6.812;2023-02-03T01:36:21;11.25;;;2.28;;
52918;SDS011;38793;52.690;6.812;2023-02-03T01:38:48;17.05;;;3.00;;
52918;SDS011;38793;52.690;6.812;2023-02-03T01:41:16;10.15;;;2.47;;
52918;SDS011;38793;52.690;6.812;2023-02-03T01:43:53;13.10;;;2.25;;
52918;SDS011;38793;52.690;6.812;2023-02-03T01:46:27;7.88;;;2.80;;
52918;SDS011;38793;52.690;6.812;2023-02-03T01:49:01;8.57;;;2.60;;
52918;SDS011;38793;52.690;6.812;2023-02-03T01:51:34;14.80;;;3.10;;
52918;SDS011;38793;52.690;6.812;2023-02-03T01:54:02;11.75;;;2.70;;
52918;SDS011;38793;52.690;6.812;2023-02-03T01:56:29;11.55;;;3.08;;
52918;SDS011;38793;52.690;6.812;2023-02-03T01:58:58;10.77;;;2.08;;
52918;SDS011;38793;52.690;6.812;2023-02-03T02:01:25;13.50;;;1.88;;
52918;SDS011;38793;52.690;6.812;2023-02-03T02:03:53;14.40;;;2.42;;
52918;SDS011;38793;52.690;6.812;2023-02-03T02:06:21;7.45;;;2.60;;
52918;SDS011;38793;52.690;6.812;2023-02-03T02:08:47;7.83;;;1.77;;
52918;SDS011;38793;52.690;6.812;2023-02-03T02:11:15;12.70;;;2.83;;
52918;SDS011;38793;52.690;6.812;2023-02-03T02:13:42;12.25;;;2.72;;
52918;SDS011;38793;52.690;6.812;2023-02-03T02:16:18;14.90;;;3.00;;
52918;SDS011;38793;52.690;6.812;2023-02-03T02:18:58;14.43;;;2.67;;
52918;SDS011;38793;52.690;6.812;2023-02-03T02:32:45;18.98;;;2.92;;
52918;SDS011;38793;52.690;6.812;2023-02-03T02:35:15;12.75;;;2.58;;
52918;SDS011;38793;52.690;6.812;2023-02-03T02:37:56;10.32;;;1.88;;
52918;SDS011;38793;52.690;6.812;2023-02-03T02:45:47;8.95;;;2.22;;
52918;SDS011;38793;52.690;6.812;2023-02-03T02:48:22;10.73;;;2.28;;
52918;SDS011;38793;52.690;6.812;2023-02-03T02:50:56;13.82;;;2.67;;
52918;SDS011;38793;52.690;6.812;2023-02-03T02:53:24;9.98;;;1.77;;
52918;SDS011;38793;52.690;6.812;2023-02-03T02:55:53;8.50;;;2.38;;
52918;SDS011;38793;52.690;6.812;2023-02-03T02:58:22;8.05;;;3.03;;
52918;SDS011;38793;52.690;6.812;2023-02-03T03:00:48;13.48;;;2.92;;
52918;SDS011;38793;52.690;6.812;2023-02-03T03:03:16;11.43;;;1.92;;
52918;SDS011;38793;52.690;6.812;2023-02-03T03:08:22;11.80;;;2.15;;
52918;SDS011;38793;52.690;6.812;2023-02-03T03:10:51;9.93;;;1.35;;
52918;SDS011;38793;52.690;6.812;2023-02-03T03:13:19;8.38;;;1.85;;
52918;SDS011;38793;52.690;6.812;2023-02-03T03:15:49;11.43;;;2.05;;
52918;SDS011;38793;52.690;6.812;2023-02-03T03:18:19;11.77;;;2.03;;
52918;SDS011;38793;52.690;6.812;2023-02-03T03:20:50;12.63;;;1.42;;
52918;SDS011;38793;52.690;6.812;2023-02-03T03:23:21;8.23;;;1.33;;
52918;SDS011;38793;52.690;6.812;2023-02-03T03:25:53;9.73;;;1.52;;
52918;SDS011;38793;52.690;6.812;2023-02-03T03:28:41;8.75;;;1.63;;
52918;SDS011;38793;52.690;6.812;2023-02-03T03:31:09;7.07;;;1.50;;
52918;SDS011;38793;52.690;6.812;2023-02-03T03:33:35;6.17;;;1.30;;
52918;SDS011;38793;52.690;6.812;2023-02-03T03:36:02;5.72;;;1.05;;
52918;SDS011;38793;52.690;6.812;2023-02-03T03:38:40;6.22;;;1.55;;
52918;SDS011;38793;52.690;6.812;2023-02-03T03:41:33;12.98;;;2.05;;
52918;SDS011;38793;52.690;6.812;2023-02-03T03:44:02;6.63;;;1.35;;
52918;SDS011;38793;52.690;6.812;2023-02-03T03:46:31;5.18;;;1.30;;
52918;SDS011;38793;52.690;6.812;2023-02-03T03:49:04;10.68;;;1.63;;
52918;SDS011;38793;52.690;6.812;2023-02-03T03:51:36;16.08;;;2.20;;
52918;SDS011;38793;52.690;6.812;2023-02-03T03:54:12;8.52;;;1.20;;
52918;SDS011;38793;52.690;6.812;2023-02-03T03:59:24;10.20;;;2.00;;
52918;SDS011;38793;52.690;6.812;2023-02-03T04:01:54;6.93;;;1.35;;
52918;SDS011;38793;52.690;6.812;2023-02-03T04:04:23;5.72;;;1.50;;
52918;SDS011;38793;52.690;6.812;2023-02-03T04:06:51;9.65;;;1.58;;
52918;SDS011;38793;52.690;6.812;2023-02-03T04:09:18;10.85;;;1.65;;
52918;SDS011;38793;52.690;6.812;2023-02-03T04:11:44;8.73;;;1.30;;
52918;SDS011;38793;52.690;6.812;2023-02-03T04:14:25;9.95;;;1.75;;
52918;SDS011;38793;52.690;6.812;2023-02-03T04:19:17;8.07;;;1.58;;
52918;SDS011;38793;52.690;6.812;2023-02-03T04:21:42;5.43;;;1.00;;
52918;SDS011;38793;52.690;6.812;2023-02-03T04:24:08;14.77;;;1.43;;
52918;SDS011;38793;52.690;6.812;2023-02-03T04:26:34;7.03;;;0.98;;
52918;SDS011;38793;52.690;6.812;2023-02-03T04:28:59;9.43;;;2.00;;
52918;SDS011;38793;52.690;6.812;2023-02-03T04:31:25;9.57;;;1.63;;
52918;SDS011;38793;52.690;6.812;2023-02-03T04:33:51;12.35;;;1.33;;
52918;SDS011;38793;52.690;6.812;2023-02-03T04:36:16;8.73;;;1.20;;
52918;SDS011;38793;52.690;6.812;2023-02-03T04:38:42;6.43;;;1.13;;
52918;SDS011;38793;52.690;6.812;2023-02-03T04:41:07;11.77;;;2.03;;
52918;SDS011;38793;52.690;6.812;2023-02-03T04:43:33;16.03;;;1.13;;
52918;SDS011;38793;52.690;6.812;2023-02-03T04:45:58;11.47;;;0.97;;
52918;SDS011;38793;52.690;6.812;2023-02-03T04:48:24;9.68;;;1.60;;
52918;SDS011;38793;52.690;6.812;2023-02-03T04:50:50;8.43;;;1.00;;
52918;SDS011;38793;52.690;6.812;2023-02-03T04:53:16;9.57;;;1.80;;
52918;SDS011;38793;52.690;6.812;2023-02-03T04:55:45;9.27;;;1.77;;
52918;SDS011;38793;52.690;6.812;2023-02-03T04:58:11;18.67;;;1.52;;
52918;SDS011;38793;52.690;6.812;2023-02-03T05:00:37;15.90;;;2.50;;
52918;SDS011;38793;52.690;6.812;2023-02-03T05:03:02;8.90;;;1.23;;
52918;SDS011;38793;52.690;6.812;2023-02-03T05:05:28;8.87;;;2.53;;
52918;SDS011;38793;52.690;6.812;2023-02-03T05:07:54;13.75;;;2.17;;
52918;SDS011;38793;52.690;6.812;2023-02-03T05:10:19;11.53;;;1.40;;
52918;SDS011;38793;52.690;6.812;2023-02-03T05:12:45;11.80;;;1.73;;
52918;SDS011;38793;52.690;6.812;2023-02-03T05:15:11;10.77;;;1.33;;
52918;SDS011;38793;52.690;6.812;2023-02-03T05:17:36;9.00;;;1.10;;
52918;SDS011;38793;52.690;6.812;2023-02-03T05:20:04;11.98;;;1.60;;
52918;SDS011;38793;52.690;6.812;2023-02-03T05:24:56;6.22;;;1.25;;
52918;SDS011;38793;52.690;6.812;2023-02-03T05:27:21;8.03;;;1.30;;
52918;SDS011;38793;52.690;6.812;2023-02-03T05:29:47;11.15;;;1.98;;
52918;SDS011;38793;52.690;6.812;2023-02-03T05:32:12;10.37;;;2.50;;
52918;SDS011;38793;52.690;6.812;2023-02-03T05:34:38;7.47;;;1.37;;
52918;SDS011;38793;52.690;6.812;2023-02-03T05:37:03;14.80;;;2.50;;
52918;SDS011;38793;52.690;6.812;2023-02-03T05:39:29;12.70;;;1.60;;
52918;SDS011;38793;52.690;6.812;2023-02-03T05:41:55;11.73;;;1.97;;
52918;SDS011;38793;52.690;6.812;2023-02-03T05:44:21;14.25;;;2.55;;
52918;SDS011;38793;52.690;6.812;2023-02-03T05:46:49;8.20;;;1.67;;
52918;SDS011;38793;52.690;6.812;2023-02-03T05:49:16;5.18;;;1.05;;
52918;SDS011;38793;52.690;6.812;2023-02-03T05:51:43;10.40;;;2.22;;
52918;SDS011;38793;52.690;6.812;2023-02-03T05:54:09;17.40;;;2.03;;
52918;SDS011;38793;52.690;6.812;2023-02-03T05:56:35;12.85;;;2.10;;
52918;SDS011;38793;52.690;6.812;2023-02-03T05:59:01;12.40;;;2.25;;
52918;SDS011;38793;52.690;6.812;2023-02-03T06:01:27;8.95;;;1.63;;
52918;SDS011;38793;52.690;6.812;2023-02-03T06:03:52;19.53;;;2.87;;
52918;SDS011;38793;52.690;6.812;2023-02-03T06:06:18;13.37;;;2.30;;
52918;SDS011;38793;52.690;6.812;2023-02-03T06:08:43;11.70;;;2.42;;
52918;SDS011;38793;52.690;6.812;2023-02-03T06:11:10;14.27;;;2.90;;
52918;SDS011;38793;52.690;6.812;2023-02-03T06:16:01;16.17;;;2.88;;
52918;SDS011;38793;52.690;6.812;2023-02-03T06:18:28;14.70;;;3.08;;
52918;SDS011;38793;52.690;6.812;2023-02-03T06:20:54;9.52;;;2.53;;
52918;SDS011;38793;52.690;6.812;2023-02-03T06:23:19;18.27;;;2.50;;
52918;SDS011;38793;52.690;6.812;2023-02-03T06:25:48;11.13;;;2.22;;
52918;SDS011;38793;52.690;6.812;2023-02-03T06:28:15;13.07;;;1.65;;
52918;SDS011;38793;52.690;6.812;2023-02-03T06:30:41;8.27;;;1.90;;
52918;SDS011;38793;52.690;6.812;2023-02-03T06:35:33;15.65;;;2.28;;
52918;SDS011;38793;52.690;6.812;2023-02-03T06:37:58;15.52;;;2.08;;
52918;SDS011;38793;52.690;6.812;2023-02-03T06:40:24;12.03;;;2.00;;
52918;SDS011;38793;52.690;6.812;2023-02-03T06:42:49;12.20;;;1.87;;
52918;SDS011;38793;52.690;6.812;2023-02-03T06:45:15;10.10;;;1.50;;
52918;SDS011;38793;52.690;6.812;2023-02-03T06:47:42;17.73;;;2.70;;
52918;SDS011;38793;52.690;6.812;2023-02-03T06:50:10;12.23;;;2.58;;
52918;SDS011;38793;52.690;6.812;2023-02-03T06:52:37;11.48;;;2.63;;
52918;SDS011;38793;52.690;6.812;2023-02-03T06:55:03;16.48;;;2.72;;
52918;SDS011;38793;52.690;6.812;2023-02-03T06:57:29;12.65;;;2.92;;
52918;SDS011;38793;52.690;6.812;2023-02-03T06:59:55;11.77;;;2.75;;
52918;SDS011;38793;52.690;6.812;2023-02-03T07:02:21;10.53;;;2.50;;
52918;SDS011;38793;52.690;6.812;2023-02-03T07:04:46;12.10;;;2.00;;
52918;SDS011;38793;52.690;6.812;2023-02-03T07:07:12;15.10;;;2.07;;
52918;SDS011;38793;52.690;6.812;2023-02-03T07:09:38;11.32;;;2.50;;
52918;SDS011;38793;52.690;6.812;2023-02-03T07:14:30;10.88;;;1.80;;
52918;SDS011;38793;52.690;6.812;2023-02-03T07:16:56;10.33;;;2.50;;
52918;SDS011;38793;52.690;6.812;2023-02-03T07:19:22;6.80;;;1.73;;
52918;SDS011;38793;52.690;6.812;2023-02-03T07:21:47;10.67;;;2.10;;
52918;SDS011;38793;52.690;6.812;2023-02-03T07:24:13;10.43;;;2.03;;
52918;SDS011;38793;52.690;6.812;2023-02-03T07:26:38;11.93;;;3.47;;
52918;SDS011;38793;52.690;6.812;2023-02-03T07:29:04;10.20;;;2.03;;
52918;SDS011;38793;52.690;6.812;2023-02-03T07:31:30;10.63;;;2.35;;
52918;SDS011;38793;52.690;6.812;2023-02-03T07:33:55;12.55;;;2.05;;
52918;SDS011;38793;52.690;6.812;2023-02-03T07:36:21;8.35;;;1.70;;
52918;SDS011;38793;52.690;6.812;2023-02-03T07:38:48;13.23;;;2.17;;
52918;SDS011;38793;52.690;6.812;2023-02-03T07:43:41;13.02;;;2.80;;
52918;SDS011;38793;52.690;6.812;2023-02-03T07:46:06;15.97;;;2.50;;
52918;SDS011;38793;52.690;6.812;2023-02-03T07:48:32;11.00;;;2.07;;
52918;SDS011;38793;52.690;6.812;2023-02-03T07:50:58;4.90;;;1.70;;
52918;SDS011;38793;52.690;6.812;2023-02-03T07:53:23;17.10;;;3.27;;
52918;SDS011;38793;52.690;6.812;2023-02-03T07:55:49;16.77;;;3.10;;
52918;SDS011;38793;52.690;6.812;2023-02-03T07:58:14;8.43;;;1.90;;
52918;SDS011;38793;52.690;6.812;2023-02-03T08:00:41;8.43;;;2.40;;
52918;SDS011;38793;52.690;6.812;2023-02-03T08:03:06;16.58;;;2.80;;
52918;SDS011;38793;52.690;6.812;2023-02-03T08:05:32;19.37;;;2.87;;
52918;SDS011;38793;52.690;6.812;2023-02-03T08:07:58;11.70;;;2.47;;
52918;SDS011;38793;52.690;6.812;2023-02-03T08:10:23;13.03;;;2.83;;
52918;SDS011;38793;52.690;6.812;2023-02-03T08:12:51;14.13;;;2.33;;
52918;SDS011;38793;52.690;6.812;2023-02-03T08:15:20;13.40;;;2.55;;
52918;SDS011;38793;52.690;6.812;2023-02-03T08:17:47;16.83;;;3.53;;
52918;SDS011;38793;52.690;6.812;2023-02-03T08:20:13;11.50;;;1.67;;
52918;SDS011;38793;52.690;6.812;2023-02-03T08:22:40;12.18;;;2.25;;
52918;SDS011;38793;52.690;6.812;2023-02-03T08:25:06;20.35;;;3.70;;
52918;SDS011;38793;52.690;6.812;2023-02-03T08:27:32;14.10;;;2.25;;
52918;SDS011;38793;52.690;6.812;2023-02-03T08:29:58;12.40;;;2.27;;
52918;SDS011;38793;52.690;6.812;2023-02-03T08:32:23;11.95;;;2.53;;
52918;SDS011;38793;52.690;6.812;2023-02-03T08:34:49;13.20;;;2.30;;
52918;SDS011;38793;52.690;6.812;2023-02-03T08:37:16;9.35;;;1.85;;
52918;SDS011;38793;52.690;6.812;2023-02-03T08:39:44;15.35;;;3.22;;
52918;SDS011;38793;52.690;6.812;2023-02-03T08:42:11;11.82;;;2.38;;
52918;SDS011;38793;52.690;6.812;2023-02-03T08:44:36;10.47;;;2.33;;
52918;SDS011;38793;52.690;6.812;2023-02-03T08:47:05;14.85;;;2.55;;
52918;SDS011;38793;52.690;6.812;2023-02-03T08:49:31;9.55;;;2.10;;
52918;SDS011;38793;52.690;6.812;2023-02-03T08:51:57;10.00;;;2.53;;
52918;SDS011;38793;52.690;6.812;2023-02-03T08:54:23;13.15;;;3.55;;
52918;SDS011;38793;52.690;6.812;2023-02-03T08:56:50;9.05;;;2.55;;
52918;SDS011;38793;52.690;6.812;2023-02-03T08:59:16;16.35;;;2.28;;
52918;SDS011;38793;52.690;6.812;2023-02-03T09:01:42;18.75;;;3.67;;
52918;SDS011;38793;52.690;6.812;2023-02-03T09:04:12;10.35;;;1.85;;
52918;SDS011;38793;52.690;6.812;2023-02-03T09:06:39;15.70;;;3.00;;
52918;SDS011;38793;52.690;6.812;2023-02-03T09:09:05;10.05;;;3.38;;
52918;SDS011;38793;52.690;6.812;2023-02-03T09:11:30;10.47;;;2.43;;
52918;SDS011;38793;52.690;6.812;2023-02-03T09:13:56;13.90;;;2.90;;
52918;SDS011;38793;52.690;6.812;2023-02-03T09:16:22;21.70;;;2.60;;
52918;SDS011;38793;52.690;6.812;2023-02-03T09:18:49;22.92;;;4.78;;
52918;SDS011;38793;52.690;6.812;2023-02-03T09:21:15;15.07;;;2.60;;
52918;SDS011;38793;52.690;6.812;2023-02-03T09:23:41;14.73;;;2.75;;
52918;SDS011;38793;52.690;6.812;2023-02-03T09:26:09;20.25;;;2.75;;
52918;SDS011;38793;52.690;6.812;2023-02-03T09:28:36;12.32;;;2.28;;
52918;SDS011;38793;52.690;6.812;2023-02-03T09:31:03;12.55;;;2.53;;
52918;SDS011;38793;52.690;6.812;2023-02-03T09:33:31;11.65;;;2.72;;
52918;SDS011;38793;52.690;6.812;2023-02-03T09:35:57;15.18;;;3.85;;
52918;SDS011;38793;52.690;6.812;2023-02-03T09:38:23;18.85;;;3.75;;
52918;SDS011;38793;52.690;6.812;2023-02-03T09:46:16;16.83;;;2.85;;
52918;SDS011;38793;52.690;6.812;2023-02-03T09:48:50;12.98;;;2.65;;
52918;SDS011;38793;52.690;6.812;2023-02-03T09:51:21;8.68;;;2.10;;
52918;SDS011;38793;52.690;6.812;2023-02-03T09:54:02;13.73;;;3.33;;
52918;SDS011;38793;52.690;6.812;2023-02-03T09:56:39;16.38;;;3.60;;
52918;SDS011;38793;52.690;6.812;2023-02-03T09:59:07;13.77;;;2.10;;
52918;SDS011;38793;52.690;6.812;2023-02-03T10:01:37;16.80;;;3.22;;
52918;SDS011;38793;52.690;6.812;2023-02-03T10:04:25;16.52;;;2.95;;
52918;SDS011;38793;52.690;6.812;2023-02-03T10:07:04;19.20;;;3.60;;
52918;SDS011;38793;52.690;6.812;2023-02-03T10:12:35;20.58;;;3.30;;
52918;SDS011;38793;52.690;6.812;2023-02-03T10:15:16;15.32;;;3.28;;
52918;SDS011;38793;52.690;6.812;2023-02-03T10:17:46;24.88;;;2.55;;
52918;SDS011;38793;52.690;6.812;2023-02-03T10:20:18;23.60;;;4.03;;
52918;SDS011;38793;52.690;6.812;2023-02-03T10:23:00;15.95;;;3.40;;
52918;SDS011;38793;52.690;6.812;2023-02-03T10:25:31;17.10;;;2.50;;
52918;SDS011;38793;52.690;6.812;2023-02-03T10:28:02;9.60;;;2.53;;
52918;SDS011;38793;52.690;6.812;2023-02-03T10:30:36;20.88;;;3.30;;
52918;SDS011;38793;52.690;6.812;2023-02-03T10:33:12;17.67;;;4.22;;
52918;SDS011;38793;52.690;6.812;2023-02-03T10:38:12;32.95;;;4.20;;
52918;SDS011;38793;52.690;6.812;2023-02-03T10:40:43;25.23;;;4.93;;
52918;SDS011;38793;52.690;6.812;2023-02-03T10:43:09;20.43;;;3.63;;
52918;SDS011;38793;52.690;6.812;2023-02-03T10:45:54;14.98;;;3.63;;
52918;SDS011;38793;52.690;6.812;2023-02-03T10:48:19;22.23;;;4.00;;
52918;SDS011;38793;52.690;6.812;2023-02-03T10:50:47;25.00;;;4.05;;
52918;SDS011;38793;52.690;6.812;2023-02-03T10:55:45;14.82;;;3.85;;
52918;SDS011;38793;52.690;6.812;2023-02-03T10:58:15;38.65;;;5.97;;
52918;SDS011;38793;52.690;6.812;2023-02-03T11:00:46;28.98;;;5.30;;
52918;SDS011;38793;52.690;6.812;2023-02-03T11:03:24;26.65;;;4.25;;
52918;SDS011;38793;52.690;6.812;2023-02-03T11:08:43;31.85;;;5.40;;
52918;SDS011;38793;52.690;6.812;2023-02-03T11:11:28;21.77;;;4.35;;
52918;SDS011;38793;52.690;6.812;2023-02-03T11:16:32;30.50;;;5.38;;
52918;SDS011;38793;52.690;6.812;2023-02-03T11:19:02;33.42;;;5.68;;
52918;SDS011;38793;52.690;6.812;2023-02-03T11:21:30;25.40;;;5.88;;
52918;SDS011;38793;52.690;6.812;2023-02-03T11:26:43;29.08;;;6.00;;
52918;SDS011;38793;52.690;6.812;2023-02-03T11:29:25;25.85;;;5.10;;
52918;SDS011;38793;52.690;6.812;2023-02-03T11:32:00;36.22;;;5.72;;
52918;SDS011;38793;52.690;6.812;2023-02-03T11:34:30;40.00;;;6.80;;
52918;SDS011;38793;52.690;6.812;2023-02-03T11:40:44;34.08;;;6.32;;
52918;SDS011;38793;52.690;6.812;2023-02-03T11:50:38;27.42;;;7.10;;
52918;SDS011;38793;52.690;6.812;2023-02-03T11:55:54;20.85;;;3.75;;
52918;SDS011;38793;52.690;6.812;2023-02-03T12:04:25;27.25;;;4.22;;
52918;SDS011;38793;52.690;6.812;2023-02-03T12:20:59;40.45;;;7.03;;
52918;SDS011;38793;52.690;6.812;2023-02-03T12:26:37;28.45;;;4.63;;
52918;SDS011;38793;52.690;6.812;2023-02-03T12:29:08;33.03;;;6.35;;
52918;SDS011;38793;52.690;6.812;2023-02-03T12:34:38;33.58;;;6.50;;
52918;SDS011;38793;52.690;6.812;2023-02-03T12:37:20;23.23;;;5.72;;
52918;SDS011;38793;52.690;6.812;2023-02-03T12:39:51;35.22;;;6.43;;
52918;SDS011;38793;52.690;6.812;2023-02-03T12:42:22;31.90;;;4.82;;
52918;SDS011;38793;52.690;6.812;2023-02-03T12:44:56;31.55;;;5.65;;
52918;SDS011;38793;52.690;6.812;2023-02-03T12:47:42;34.28;;;5.47;;
52918;SDS011;38793;52.690;6.812;2023-02-03T12:53:02;37.75;;;6.38;;
52918;SDS011;38793;52.690;6.812;2023-02-03T12:58:20;25.55;;;5.68;;
52918;SDS011;38793;52.690;6.812;2023-02-03T13:00:56;23.92;;;5.82;;
52918;SDS011;38793;52.690;6.812;2023-02-03T13:06:14;31.20;;;5.97;;
52918;SDS011;38793;52.690;6.812;2023-02-03T13:09:04;30.73;;;7.15;;
52918;SDS011;38793;52.690;6.812;2023-02-03T13:12:02;35.20;;;6.72;;
52918;SDS011;38793;52.690;6.812;2023-02-03T13:17:19;37.67;;;6.00;;
52918;SDS011;38793;52.690;6.812;2023-02-03T13:19:51;35.20;;;6.25;;
52918;SDS011;38793;52.690;6.812;2023-02-03T13:22:21;35.58;;;6.28;;
52918;SDS011;38793;52.690;6.812;2023-02-03T13:24:55;44.28;;;7.05;;
52918;SDS011;38793;52.690;6.812;2023-02-03T13:30:03;38.97;;;6.95;;
52918;SDS011;38793;52.690;6.812;2023-02-03T13:33:01;40.83;;;6.53;;
52918;SDS011;38793;52.690;6.812;2023-02-03T13:38:44;39.95;;;6.07;;
52918;SDS011;38793;52.690;6.812;2023-02-03T13:41:25;35.45;;;7.70;;
52918;SDS011;38793;52.690;6.812;2023-02-03T13:44:15;37.50;;;6.40;;
52918;SDS011;38793;52.690;6.812;2023-02-03T13:46:45;39.40;;;8.50;;
52918;SDS011;38793;52.690;6.812;2023-02-03T13:49:21;30.33;;;6.55;;
52918;SDS011;38793;52.690;6.812;2023-02-03T13:51:51;35.15;;;7.13;;
52918;SDS011;38793;52.690;6.812;2023-02-03T13:57:03;31.67;;;6.20;;
52918;SDS011;38793;52.690;6.812;2023-02-03T13:59:43;43.85;;;6.72;;
52918;SDS011;38793;52.690;6.812;2023-02-03T14:10:08;35.55;;;6.00;;
52918;SDS011;38793;52.690;6.812;2023-02-03T14:15:20;40.17;;;7.60;;
52918;SDS011;38793;52.690;6.812;2023-02-03T14:22:57;33.78;;;9.35;;
52918;SDS011;38793;52.690;6.812;2023-02-03T14:25:31;31.05;;;7.07;;
52918;SDS011;38793;52.690;6.812;2023-02-03T14:28:03;39.33;;;6.38;;
52918;SDS011;38793;52.690;6.812;2023-02-03T14:30:31;43.42;;;7.95;;
52918;SDS011;38793;52.690;6.812;2023-02-03T14:32:58;36.92;;;5.97;;
52918;SDS011;38793;52.690;6.812;2023-02-03T14:35:34;39.33;;;7.10;;
52918;SDS011;38793;52.690;6.812;2023-02-03T14:38:02;33.10;;;6.45;;
52918;SDS011;38793;52.690;6.812;2023-02-03T14:43:28;33.22;;;6.22;;
52918;SDS011;38793;52.690;6.812;2023-02-03T14:54:32;39.47;;;6.53;;
52918;SDS011;38793;52.690;6.812;2023-02-03T14:57:23;27.55;;;5.38;;
52918;SDS011;38793;52.690;6.812;2023-02-03T15:00:04;33.73;;;7.87;;
52918;SDS011;38793;52.690;6.812;2023-02-03T15:02:34;29.35;;;6.10;;
52918;SDS011;38793;52.690;6.812;2023-02-03T15:07:39;29.42;;;7.80;;
52918;SDS011;38793;52.690;6.812;2023-02-03T15:10:16;36.30;;;7.15;;
52918;SDS011;38793;52.690;6.812;2023-02-03T15:12:53;26.85;;;5.70;;
52918;SDS011;38793;52.690;6.812;2023-02-03T15:15:24;31.23;;;6.82;;
52918;SDS011;38793;52.690;6.812;2023-02-03T15:17:52;26.20;;;5.43;;
52918;SDS011;38793;52.690;6.812;2023-02-03T15:20:29;29.20;;;5.53;;
52918;SDS011;38793;52.690;6.812;2023-02-03T15:22:55;36.13;;;5.55;;
52918;SDS011;38793;52.690;6.812;2023-02-03T15:25:21;119.30;;;12.60;;
52918;SDS011;38793;52.690;6.812;2023-02-03T15:27:49;105.07;;;12.45;;
52918;SDS011;38793;52.690;6.812;2023-02-03T15:30:17;58.47;;;6.88;;
52918;SDS011;38793;52.690;6.812;2023-02-03T15:32:57;59.88;;;8.30;;
52918;SDS011;38793;52.690;6.812;2023-02-03T15:35:29;56.50;;;6.70;;
52918;SDS011;38793;52.690;6.812;2023-02-03T15:38:01;43.70;;;6.45;;
52918;SDS011;38793;52.690;6.812;2023-02-03T15:40:35;28.10;;;6.45;;
52918;SDS011;38793;52.690;6.812;2023-02-03T15:43:15;23.25;;;4.55;;
52918;SDS011;38793;52.690;6.812;2023-02-03T15:56:22;27.55;;;5.00;;
52918;SDS011;38793;52.690;6.812;2023-02-03T15:59:01;19.52;;;4.07;;
52918;SDS011;38793;52.690;6.812;2023-02-03T16:01:27;20.73;;;3.25;;
52918;SDS011;38793;52.690;6.812;2023-02-03T16:03:54;28.83;;;3.95;;
52918;SDS011;38793;52.690;6.812;2023-02-03T16:06:33;22.88;;;3.15;;
52918;SDS011;38793;52.690;6.812;2023-02-03T16:09:04;16.48;;;2.55;;
52918;SDS011;38793;52.690;6.812;2023-02-03T16:14:02;20.52;;;2.67;;
52918;SDS011;38793;52.690;6.812;2023-02-03T16:19:12;16.92;;;3.97;;
52918;SDS011;38793;52.690;6.812;2023-02-03T16:29:54;20.65;;;2.92;;
52918;SDS011;38793;52.690;6.812;2023-02-03T16:33:10;23.27;;;4.25;;
52918;SDS011;38793;52.690;6.812;2023-02-03T16:35:57;19.70;;;2.92;;
52918;SDS011;38793;52.690;6.812;2023-02-03T16:38:47;21.88;;;2.83;;
52918;SDS011;38793;52.690;6.812;2023-02-03T16:41:32;17.05;;;3.83;;
52918;SDS011;38793;52.690;6.812;2023-02-03T16:44:16;20.88;;;2.85;;
52918;SDS011;38793;52.690;6.812;2023-02-03T16:47:01;25.45;;;3.88;;
52918;SDS011;38793;52.690;6.812;2023-02-03T16:49:46;24.55;;;5.60;;
52918;SDS011;38793;52.690;6.812;2023-02-03T16:52:30;29.05;;;5.10;;
52918;SDS011;38793;52.690;6.812;2023-02-03T16:54:56;36.20;;;5.80;;
52918;SDS011;38793;52.690;6.812;2023-02-03T16:57:22;31.25;;;4.93;;
52918;SDS011;38793;52.690;6.812;2023-02-03T16:59:47;47.07;;;6.70;;
52918;SDS011;38793;52.690;6.812;2023-02-03T17:02:13;30.63;;;6.00;;
52918;SDS011;38793;52.690;6.812;2023-02-03T17:04:39;40.67;;;6.27;;
52918;SDS011;38793;52.690;6.812;2023-02-03T17:07:04;32.47;;;5.90;;
52918;SDS011;38793;52.690;6.812;2023-02-03T17:09:30;31.63;;;6.47;;
52918;SDS011;38793;52.690;6.812;2023-02-03T17:11:59;37.85;;;6.43;;
52918;SDS011;38793;52.690;6.812;2023-02-03T17:14:26;28.42;;;5.28;;
52918;SDS011;38793;52.690;6.812;2023-02-03T17:16:51;36.10;;;8.02;;
52918;SDS011;38793;52.690;6.812;2023-02-03T17:19:17;34.47;;;7.78;;
52918;SDS011;38793;52.690;6.812;2023-02-03T17:21:44;37.13;;;6.87;;
52918;SDS011;38793;52.690;6.812;2023-02-03T17:24:11;38.35;;;6.28;;
52918;SDS011;38793;52.690;6.812;2023-02-03T17:26:37;37.97;;;6.75;;
52918;SDS011;38793;52.690;6.812;2023-02-03T17:29:03;32.70;;;6.13;;
52918;SDS011;38793;52.690;6.812;2023-02-03T17:31:29;40.30;;;6.93;;
52918;SDS011;38793;52.690;6.812;2023-02-03T17:33:55;41.42;;;5.78;;
52918;SDS011;38793;52.690;6.812;2023-02-03T17:36:21;38.80;;;6.78;;
52918;SDS011;38793;52.690;6.812;2023-02-03T17:38:49;31.45;;;4.95;;
52918;SDS011;38793;52.690;6.812;2023-02-03T17:41:18;37.25;;;6.95;;
52918;SDS011;38793;52.690;6.812;2023-02-03T17:43:44;33.38;;;6.15;;
52918;SDS011;38793;52.690;6.812;2023-02-03T17:46:12;38.90;;;6.57;;